Latest Coastal Weather Observations for Kowanyama

IDQ60701

Issued at 11:42 pm EST Wednesday 10 August 2022 (issued every 10 minutes, with the page automatically refreshed every 10 minutes)

About coastal observations | Map of coastal stations | Coastal observations for QLD | Marine services | Other Formats
Station Details ID: 029038 Name: KOWANYAMA AIRPORT Lat: -15.48 Lon: 141.75 Height: 9.6 m
Data from the previous 72 hours. | See also: Recent months at Kowanyama
Date/Time
EST
Wind Sea
Height
m
Swell Vis
km
Cloud Weather Temp
°C
Press
MSL
hPa
Rain since
9am
mm
Dir  Spd
kts
Gust
kts
Height
m
Period
s
Dir
10/11:30pm CALM 0 0 - - - - 10 Clear - 20.1 1015.8 0.0
10/11:00pm CALM 0 4 - - - - 10 - - 20.7 1015.6 0.0
10/10:30pm NNE 1 4 - - - - 10 - - 21.1 1015.4 0.0
10/10:00pm CALM 0 0 - - - - 10 - - 21.6 1015.0 0.0
10/09:30pm CALM 0 0 - - - - 10 - - 22.2 1014.7 0.0
10/09:00pm WSW 1 3 - - - - 10 - - 22.7 1014.5 0.0
10/08:30pm SW 4 5 - - - - 10 - - 23.3 1014.2 0.0
10/08:00pm W 5 5 - - - - 10 - - 24.2 1013.7 0.0
10/07:30pm NW 4 6 - - - - 10 - - 25.2 1013.2 0.0
10/07:00pm SE 4 5 - - - - 10 - - 27.2 1012.6 0.0
10/06:30pm SE 5 6 - - - - 10 - - 29.1 1012.2 0.0
10/06:00pm ESE 6 7 - - - - 10 - - 30.4 1011.8 0.0
10/05:30pm ESE 6 9 - - - - 10 - - 31.1 1011.6 0.0
10/05:00pm SE 8 12 - - - - 10 - - 31.8 1011.3 0.0
10/04:30pm ESE 7 10 - - - - 10 - - 31.7 1011.3 0.0
10/04:00pm SE 7 13 - - - - 10 - - 31.9 1011.2 0.0
10/03:30pm ESE 8 13 - - - - 10 - - 31.7 1011.3 0.0
10/03:00pm SE 7 11 - - - - 10 - - 31.2 1011.6 0.0
10/02:30pm ESE 10 14 - - - - 10 - - 30.9 1012.0 0.0
10/02:00pm SE 9 15 - - - - 10 - - 30.7 1012.6 0.0
10/01:30pm SE 9 14 - - - - 10 - - 30.5 1013.1 0.0
10/01:00pm ESE 9 13 - - - - 10 - - 29.0 1013.7 0.0
10/12:30pm E 9 14 - - - - 10 - - 28.9 1014.3 0.0
10/12:00pm ESE 8 14 - - - - 10 - - 28.2 1014.6 0.0
10/11:30am E 8 13 - - - - 10 - - 27.8 1015.3 0.0
10/11:00am E 8 13 - - - - 10 - - 26.8 1015.9 0.0
10/10:30am E 9 15 - - - - 10 - - 26.3 1016.1 0.0
10/10:00am ENE 9 16 - - - - 10 - - 25.2 1016.3 0.0
10/09:30am ENE 11 19 - - - - 10 - - 24.2 1016.4 0.0
10/09:00am ENE 11 18 - - - - 10 Mostly clear - 23.3 1016.5 0.0
10/08:30am ENE 10 16 - - - - 10 - - 22.2 1016.5 0.0
10/08:00am E 7 13 - - - - 10 Partly cloudy - 22.3 1016.2 0.0
10/07:30am E 6 10 - - - - 10 Cloudy - 21.7 1016.0 0.0
10/07:00am ENE 7 11 - - - - 10 Cloudy - 21.7 1015.5 0.0
10/06:30am ENE 7 11 - - - - 10 Cloudy - 21.9 1015.0 0.0
10/06:00am ENE 9 15 - - - - 10 Cloudy - 22.0 1014.4 0.0
10/05:30am ENE 7 13 - - - - 10 Cloudy - 22.3 1014.1 0.0
10/05:00am ENE 7 12 - - - - 10 Cloudy - 22.5 1013.9 0.0
10/04:30am ENE 9 16 - - - - 10 Cloudy - 22.7 1013.6 0.0
10/04:00am ENE 8 13 - - - - 10 Cloudy - 23.0 1013.5 0.0
10/03:30am ENE 8 13 - - - - 10 Cloudy - 23.4 1013.4 0.0
10/03:00am NE 9 15 - - - - 10 Cloudy - 23.8 1013.5 0.0
10/02:30am NE 7 11 - - - - 10 Cloudy - 24.7 1013.4 0.0
10/02:00am NE 9 17 - - - - 10 Partly cloudy - 25.2 1013.3 0.0
10/01:30am ENE 3 5 - - - - 10 Partly cloudy - 24.7 1013.5 0.0
10/01:00am ESE 2 3 - - - - 10 Partly cloudy - 24.6 1013.8 0.0
10/12:30am E 1 4 - - - - 10 Partly cloudy - 24.5 1014.0 0.0
10/12:00am E 3 5 - - - - 10 Cloudy - 24.2 1014.1 0.0
 
Date/Time
EST
Wind Sea
Height
m
Swell Vis
km
Cloud Weather Temp
°C
Press
MSL
hPa
Rain since
9am
mm
Dir  Spd
kts
Gust
kts
Height
m
Period
s
Dir
09/11:30pm S 5 7 - - - - 10 Partly cloudy - 23.8 1013.7 0.0
09/11:00pm SSW 4 6 - - - - 10 Partly cloudy - 23.8 1013.7 0.0
09/10:30pm SW 4 5 - - - - 10 Partly cloudy - 23.6 1013.8 0.0
09/10:00pm SW 2 4 - - - - 10 Partly cloudy - 23.5 1013.7 0.0
09/09:30pm SW 4 6 - - - - 10 Partly cloudy - 23.4 1013.6 0.0
09/09:00pm SW 6 8 - - - - 10 Mostly cloudy - 23.8 1013.4 0.0
09/08:30pm SW 4 5 - - - - 10 Partly cloudy - 24.0 1013.2 0.0
09/08:00pm SW 6 7 - - - - 10 Partly cloudy - 24.2 1012.5 0.0
09/07:30pm WSW 7 9 - - - - 10 - - 24.7 1012.0 0.0
09/07:00pm WSW 6 9 - - - - 10 - - 25.7 1011.5 0.0
09/06:30pm W 7 11 - - - - 10 - - 26.9 1011.3 0.0
09/06:00pm W 9 13 - - - - 10 Partly cloudy - 28.5 1010.9 0.0
09/05:30pm WSW 10 13 - - - - 10 Partly cloudy - 30.0 1010.4 0.0
09/05:00pm WSW 9 13 - - - - 10 Partly cloudy - 31.6 1010.1 0.0
09/04:30pm SSE 4 6 - - - - 10 - - 33.2 1009.9 0.0
09/04:00pm ENE 5 7 - - - - 10 Partly cloudy - 33.9 1009.7 0.0
09/03:30pm SE 5 10 - - - - 10 Partly cloudy - 33.0 1009.7 0.0
09/03:00pm S 5 9 - - - - 10 - - 33.2 1009.9 0.0
09/02:30pm SE 5 8 - - - - 10 - - 32.5 1010.3 0.0
09/02:00pm ESE 5 8 - - - - 10 - - 32.3 1010.8 0.0
09/01:30pm ESE 6 11 - - - - 10 - - 31.7 1011.3 0.0
09/01:00pm NE 6 12 - - - - 10 - - 32.4 1011.8 0.0
09/12:30pm E 7 11 - - - - 10 Partly cloudy - 31.1 1012.5 0.0
09/12:00pm E 8 12 - - - - 10 - - 29.8 1012.9 0.0
09/11:30am ENE 9 13 - - - - 10 - - 29.5 1013.3 0.0
09/11:00am ENE 9 13 - - - - 10 - - 28.9 1013.7 0.0
09/10:30am E 9 14 - - - - 10 Partly cloudy - 28.5 1014.2 0.0
09/10:00am E 8 14 - - - - 10 Partly cloudy - 27.7 1014.5 0.0
09/09:30am E 9 16 - - - - 10 - - 26.5 1014.4 0.0
09/09:00am ENE 11 18 - - - - 10 Mostly clear - 26.0 1014.1 0.0
09/08:30am ENE 8 13 - - - - 10 - - 25.6 1013.8 0.0
09/08:00am ENE 5 8 - - - - 10 - - 24.4 1013.8 0.0
09/07:30am ENE 2 4 - - - - 10 Partly cloudy - 23.5 1013.6 0.0
09/07:00am ENE 1 4 - - - - 10 Partly cloudy - 22.7 1013.4 0.0
09/06:30am ENE 3 5 - - - - 10 Partly cloudy - 23.0 1013.1 0.0
09/06:00am E 3 5 - - - - 10 Mostly clear - 23.3 1012.8 0.0
09/05:30am ENE 3 5 - - - - 10 Partly cloudy - 23.1 1012.5 0.0
09/05:00am ENE 3 5 - - - - 10 Partly cloudy - 22.8 1012.4 0.0
09/04:30am CALM 0 0 - - - - 10 Partly cloudy - 22.9 1012.3 0.0
09/04:00am ENE 3 4 - - - - 10 Partly cloudy - 23.5 1012.1 0.0
09/03:30am E 4 6 - - - - 10 Partly cloudy - 23.1 1012.0 0.0
09/03:00am ESE 2 4 - - - - 10 Cloudy - 23.4 1012.2 0.0
09/02:30am CALM 0 4 - - - - 10 Partly cloudy - 23.7 1012.2 0.0
09/02:00am ESE 2 3 - - - - 10 Cloudy - 24.3 1012.4 0.0
09/01:30am E 4 5 - - - - 10 Cloudy - 24.3 1012.7 0.0
09/01:00am E 5 6 - - - - 10 Partly cloudy - 24.3 1012.9 0.0
09/12:30am S 4 7 - - - - 10 Partly cloudy - 24.6 1012.7 0.0
09/12:00am SSW 5 6 - - - - 10 Cloudy - 24.2 1012.5 0.0
 
Date/Time
EST
Wind Sea
Height
m
Swell Vis
km
Cloud Weather Temp
°C
Press
MSL
hPa
Rain since
9am
mm
Dir  Spd
kts
Gust
kts
Height
m
Period
s
Dir
08/11:30pm SW 4 5 - - - - 10 Partly cloudy - 24.3 1012.5 0.0
08/11:00pm SW 4 5 - - - - 10 Partly cloudy - 24.5 1012.6 0.0
08/10:30pm SW 4 5 - - - - 10 Cloudy - 24.7 1012.7 0.0
08/10:00pm SW 4 5 - - - - 10 Cloudy - 24.7 1012.7 0.0
08/09:30pm SW 3 3 - - - - 10 Partly cloudy - 24.5 1012.7 0.0
08/09:00pm SW 4 5 - - - - 10 Partly cloudy - 24.7 1012.6 0.0
08/08:30pm SW 6 9 - - - - 10 Partly cloudy - 25.1 1012.5 0.0
08/08:00pm SW 6 8 - - - - 10 Partly cloudy - 24.9 1012.2 0.0
08/07:30pm SW 7 10 - - - - 10 - - 25.2 1011.7 0.0
08/07:00pm SW 10 13 - - - - 10 - - 25.9 1011.4 0.0
08/06:30pm SW 8 13 - - - - 10 Partly cloudy - 26.7 1010.9 0.0
08/06:00pm WSW 9 12 - - - - 10 - - 27.7 1010.6 0.0
08/05:30pm W 9 12 - - - - 10 - - 29.4 1010.4 0.0
08/05:00pm W 10 15 - - - - 10 Partly cloudy - 30.5 1010.2 0.0
08/04:30pm W 10 14 - - - - 10 Partly cloudy - 31.1 1010.1 0.0
08/04:00pm W 10 14 - - - - 10 Partly cloudy - 32.2 1009.8 0.0
08/03:30pm ESE 6 10 - - - - 10 - - 34.1 1009.8 0.0
08/03:00pm SE 7 12 - - - - 10 - - 33.8 1010.0 0.0
08/02:30pm SE 7 9 - - - - 10 Partly cloudy - 33.1 1010.4 0.0
08/02:00pm E 4 8 - - - - 10 - - 33.2 1010.9 0.0
08/01:30pm ESE 6 11 - - - - 10 - - 32.3 1011.2 0.0
08/01:00pm E 7 12 - - - - 10 - - 31.8 1011.8 0.0
08/12:30pm E 5 8 - - - - 10 - - 31.6 1012.4 0.0
08/12:00pm E 7 11 - - - - 10 - - 31.9 1013.0 0.0
08/11:30am ENE 8 14 - - - - 10 - - 31.2 1013.5 0.0
08/11:00am E 8 13 - - - - 10 - - 30.5 1014.0 0.0
08/10:30am E 9 15 - - - - 10 - - 29.3 1014.4 0.0
08/10:00am ENE 8 14 - - - - 10 - - 28.6 1014.7 0.0
08/09:30am ENE 7 11 - - - - 10 - - 28.0 1014.8 0.0
08/09:00am E 6 10 - - - - 10 - - 26.7 1014.7 0.0
08/08:30am E 4 6 - - - - 10 - - 25.4 1014.5 0.0
08/08:00am CALM 0 0 - - - - 10 - - 22.7 1014.1 0.0
08/07:30am CALM 0 0 - - - - 10 - - 20.3 1013.8 0.0
08/07:00am CALM 0 0 - - - - 10 - - 19.7 1013.4 0.0
08/06:30am ENE 3 4 - - - - 10 - - 20.0 1013.0 0.0
08/06:00am CALM 0 0 - - - - 10 - - 20.0 1012.6 0.0
08/05:30am CALM 0 0 - - - - 10 - - 20.0 1012.4 0.0
08/05:00am CALM 0 0 - - - - 10 - - 20.3 1012.2 0.0
08/04:30am CALM 0 0 - - - - 10 - - 20.5 1011.9 0.0
08/04:00am CALM 0 0 - - - - 10 - - 20.8 1011.8 0.0
08/03:30am CALM 0 0 - - - - 10 - - 21.2 1012.0 0.0
08/03:00am CALM 0 0 - - - - 10 - - 21.4 1012.1 0.0
08/02:30am CALM 0 0 - - - - 10 - - 21.7 1012.2 0.0
08/02:00am CALM 0 0 - - - - 10 - - 22.4 1012.4 0.0
08/01:30am SE 3 4 - - - - 10 Partly cloudy - 23.0 1012.7 0.0
08/01:00am ENE 3 4 - - - - 10 Partly cloudy - 22.6 1013.0 0.0
08/12:30am ENE 4 5 - - - - 10 Partly cloudy - 22.4 1013.0 0.0
08/12:00am ENE 5 6 - - - - 10 Cloudy - 22.7 1012.9 0.0

Other formats

Comma delimited format used in spreadsheet applications
http://www.bom.gov.au/fwo/IDQ60701/IDQ60701.94268.axf

JavaScript Object Notation format (JSON) in row-major order
http://www.bom.gov.au/fwo/IDQ60701/IDQ60701.94268.json

Data quality

Most of these data are generated automatically and are frequently updated. Quality checks on data are not normally performed. It is possible for incorrect values to appear. Refer to information at About Latest Weather Observations and please check the disclaimer before using these data.